Date,TemperatureHighF,TemperatureAvgF,TemperatureLowF,DewpointHighF,DewpointAvgF,DewpointLowF,HumidityHigh,HumidityAvg,HumidityLow,PressureMaxIn,PressureMinIn,WindSpeedMaxMPH,WindSpeedAvgMPH,GustSpeedMaxMPH,PrecipitationSumIn
2013-2-1,28,19,7,16,10,3,85,69,55,30.54,30.12,9,2,11,0.00
2013-2-2,51,38,26,36,28,16,80,67,54,30.25,30.08,9,1,9,0.01
2013-2-3,50,41,30,31,27,18,84,59,36,30.31,29.83,11,2,12,0.00
2013-2-4,48,38,25,32,28,22,89,68,49,30.01,29.78,10,2,15,0.00
2013-2-5,59,39,22,35,28,20,92,68,37,30.12,29.90,9,1,11,0.00
2013-2-6,63,48,28,47,36,24,87,65,42,30.12,29.84,13,3,18,0.00
2013-2-7,54,45,32,48,40,27,97,83,64,30.23,29.84,11,2,15,0.86
2013-2-8,45,35,30,33,28,26,89,78,60,30.37,30.18,8,2,10,0.00
2013-2-9,52,39,30,39,33,27,91,80,55,30.24,29.72,17,3,17,0.01
2013-2-10,51,44,38,46,35,25,96,71,49,29.94,29.46,21,7,25,0.03
2013-2-11,48,37,28,28,25,22,82,61,40,30.20,29.92,11,2,11,0.00
2013-2-12,43,33,23,30,24,20,89,72,49,30.20,29.95,4,0,6,0.00
2013-2-13,57,39,25,31,26,22,89,64,30,29.99,29.79,9,1,12,0.00
2013-2-14,51,41,29,34,28,23,86,62,38,30.22,29.83,8,2,13,0.00
2013-2-15,39,31,21,27,18,9,93,61,36,30.42,30.18,11,2,15,0.00
2013-2-16,36,30,21,26,22,19,93,75,50,30.36,30.04,8,2,11,0.07
2013-2-17,60,44,28,36,29,19,71,55,39,30.09,29.63,10,2,15,0.00
2013-2-18,56,44,28,46,32,18,75,63,45,30.11,29.51,14,4,19,0.00
2013-2-19,37,28,23,19,11,1,78,51,25,30.39,30.08,13,2,14,0.00
2013-2-20,27,22,17,15,9,3,64,55,45,30.42,30.14,10,4,12,0.00
2013-2-21,27,24,21,26,21,15,94,86,64,30.23,29.74,20,4,20,0.00
2013-2-22,30,24,17,23,19,13,93,82,66,30.07,29.78,11,2,11,0.29
2013-2-23,35,22,8,24,16,5,90,79,60,30.07,29.92,9,1,9,0.09
2013-2-24,47,32,15,31,23,13,92,72,50,29.99,29.87,12,2,12,0.04
2013-2-25,37,34,31,34,29,25,95,80,70,29.97,29.69,13,4,21,0.08
2013-2-26,34,33,31,32,31,30,97,93,87,29.90,29.62,10,3,18,0.22
2013-2-27,40,34,30,30,28,26,94,80,63,30.10,29.84,10,3,13,0.10
2013-2-28,33,32,30,28,26,24,83,79,77,30.24,30.05,9,2,12,0.00